sensor_id;sensor_type;location;lat;lon;timestamp;P1;durP1;ratioP1;P2;durP2;ratioP2
1376;SDS011;682;52.502;13.488;2023-04-24T00:02:12;8.67;;;5.40;;
1376;SDS011;682;52.502;13.488;2023-04-24T00:04:39;9.17;;;5.70;;
1376;SDS011;682;52.502;13.488;2023-04-24T00:07:09;8.50;;;5.67;;
1376;SDS011;682;52.502;13.488;2023-04-24T00:09:36;8.13;;;5.10;;
1376;SDS011;682;52.502;13.488;2023-04-24T00:12:03;9.37;;;6.43;;
1376;SDS011;682;52.502;13.488;2023-04-24T00:14:30;8.67;;;6.30;;
1376;SDS011;682;52.502;13.488;2023-04-24T00:16:58;9.90;;;5.77;;
1376;SDS011;682;52.502;13.488;2023-04-24T00:19:27;8.80;;;5.83;;
1376;SDS011;682;52.502;13.488;2023-04-24T00:21:55;8.90;;;6.40;;
1376;SDS011;682;52.502;13.488;2023-04-24T00:24:22;8.27;;;5.73;;
1376;SDS011;682;52.502;13.488;2023-04-24T00:26:49;8.90;;;5.47;;
1376;SDS011;682;52.502;13.488;2023-04-24T00:29:16;9.60;;;6.30;;
1376;SDS011;682;52.502;13.488;2023-04-24T00:31:43;8.27;;;5.60;;
1376;SDS011;682;52.502;13.488;2023-04-24T00:34:10;8.83;;;6.50;;
1376;SDS011;682;52.502;13.488;2023-04-24T00:36:39;8.60;;;6.00;;
1376;SDS011;682;52.502;13.488;2023-04-24T00:39:06;8.77;;;5.87;;
1376;SDS011;682;52.502;13.488;2023-04-24T00:41:34;10.93;;;6.07;;
1376;SDS011;682;52.502;13.488;2023-04-24T00:44:01;9.77;;;6.60;;
1376;SDS011;682;52.502;13.488;2023-04-24T00:46:28;8.40;;;5.80;;
1376;SDS011;682;52.502;13.488;2023-04-24T00:48:55;9.43;;;6.00;;
1376;SDS011;682;52.502;13.488;2023-04-24T00:51:22;8.70;;;5.90;;
1376;SDS011;682;52.502;13.488;2023-04-24T00:53:51;8.33;;;6.27;;
1376;SDS011;682;52.502;13.488;2023-04-24T00:56:18;10.77;;;6.63;;
1376;SDS011;682;52.502;13.488;2023-04-24T00:58:45;12.37;;;6.40;;
1376;SDS011;682;52.502;13.488;2023-04-24T01:01:13;9.40;;;6.57;;
1376;SDS011;682;52.502;13.488;2023-04-24T01:03:40;9.57;;;6.27;;
1376;SDS011;682;52.502;13.488;2023-04-24T01:06:07;9.00;;;6.70;;
1376;SDS011;682;52.502;13.488;2023-04-24T01:08:36;9.23;;;6.10;;
1376;SDS011;682;52.502;13.488;2023-04-24T01:11:06;9.40;;;6.30;;
1376;SDS011;682;52.502;13.488;2023-04-24T01:13:33;10.33;;;7.03;;
1376;SDS011;682;52.502;13.488;2023-04-24T01:16:00;9.67;;;6.33;;
1376;SDS011;682;52.502;13.488;2023-04-24T01:18:27;9.77;;;6.10;;
1376;SDS011;682;52.502;13.488;2023-04-24T01:20:57;8.90;;;6.37;;
1376;SDS011;682;52.502;13.488;2023-04-24T01:23:26;10.40;;;7.13;;
1376;SDS011;682;52.502;13.488;2023-04-24T01:25:54;10.30;;;6.43;;
1376;SDS011;682;52.502;13.488;2023-04-24T01:28:21;8.93;;;6.50;;
1376;SDS011;682;52.502;13.488;2023-04-24T01:30:48;9.63;;;7.30;;
1376;SDS011;682;52.502;13.488;2023-04-24T01:33:15;10.10;;;7.30;;
1376;SDS011;682;52.502;13.488;2023-04-24T01:35:43;9.37;;;6.60;;
1376;SDS011;682;52.502;13.488;2023-04-24T01:38:10;10.30;;;7.00;;
1376;SDS011;682;52.502;13.488;2023-04-24T01:40:39;10.70;;;6.63;;
1376;SDS011;682;52.502;13.488;2023-04-24T01:43:06;10.57;;;7.30;;
1376;SDS011;682;52.502;13.488;2023-04-24T01:45:33;9.27;;;6.63;;
1376;SDS011;682;52.502;13.488;2023-04-24T01:48:00;10.30;;;7.00;;
1376;SDS011;682;52.502;13.488;2023-04-24T01:50:27;10.10;;;7.03;;
1376;SDS011;682;52.502;13.488;2023-04-24T01:52:55;10.97;;;7.47;;
1376;SDS011;682;52.502;13.488;2023-04-24T01:55:22;8.93;;;6.90;;
1376;SDS011;682;52.502;13.488;2023-04-24T01:57:50;10.87;;;7.83;;
1376;SDS011;682;52.502;13.488;2023-04-24T02:00:20;9.10;;;6.93;;
1376;SDS011;682;52.502;13.488;2023-04-24T02:02:47;10.10;;;7.13;;
1376;SDS011;682;52.502;13.488;2023-04-24T02:05:15;9.40;;;6.70;;
1376;SDS011;682;52.502;13.488;2023-04-24T02:07:42;9.30;;;6.73;;
1376;SDS011;682;52.502;13.488;2023-04-24T02:10:09;11.37;;;7.97;;
1376;SDS011;682;52.502;13.488;2023-04-24T02:12:37;11.13;;;7.13;;
1376;SDS011;682;52.502;13.488;2023-04-24T02:15:05;10.63;;;7.20;;
1376;SDS011;682;52.502;13.488;2023-04-24T02:17:32;9.90;;;6.83;;
1376;SDS011;682;52.502;13.488;2023-04-24T02:20:00;11.10;;;7.70;;
1376;SDS011;682;52.502;13.488;2023-04-24T02:22:27;10.70;;;6.93;;
1376;SDS011;682;52.502;13.488;2023-04-24T02:24:54;11.07;;;7.70;;
1376;SDS011;682;52.502;13.488;2023-04-24T02:27:21;9.27;;;7.57;;
1376;SDS011;682;52.502;13.488;2023-04-24T02:29:48;11.17;;;7.83;;
1376;SDS011;682;52.502;13.488;2023-04-24T02:32:16;10.43;;;6.87;;
1376;SDS011;682;52.502;13.488;2023-04-24T02:34:43;10.77;;;7.27;;
1376;SDS011;682;52.502;13.488;2023-04-24T02:37:10;11.90;;;9.40;;
1376;SDS011;682;52.502;13.488;2023-04-24T02:39:37;10.30;;;7.50;;
1376;SDS011;682;52.502;13.488;2023-04-24T02:42:04;9.50;;;6.87;;
1376;SDS011;682;52.502;13.488;2023-04-24T02:44:33;9.13;;;7.20;;
1376;SDS011;682;52.502;13.488;2023-04-24T02:47:00;9.87;;;7.43;;
1376;SDS011;682;52.502;13.488;2023-04-24T02:49:28;12.30;;;7.90;;
1376;SDS011;682;52.502;13.488;2023-04-24T02:51:55;11.67;;;8.07;;
1376;SDS011;682;52.502;13.488;2023-04-24T02:54:22;14.70;;;8.17;;
1376;SDS011;682;52.502;13.488;2023-04-24T02:56:49;10.13;;;8.03;;
1376;SDS011;682;52.502;13.488;2023-04-24T02:59:16;11.20;;;8.10;;
1376;SDS011;682;52.502;13.488;2023-04-24T03:01:43;11.77;;;8.33;;
1376;SDS011;682;52.502;13.488;2023-04-24T03:04:10;13.30;;;8.07;;
1376;SDS011;682;52.502;13.488;2023-04-24T03:06:38;12.13;;;8.73;;
1376;SDS011;682;52.502;13.488;2023-04-24T03:09:06;10.33;;;8.03;;
1376;SDS011;682;52.502;13.488;2023-04-24T03:11:33;11.13;;;9.03;;
1376;SDS011;682;52.502;13.488;2023-04-24T03:14:00;12.13;;;9.20;;
1376;SDS011;682;52.502;13.488;2023-04-24T03:16:27;12.10;;;9.30;;
1376;SDS011;682;52.502;13.488;2023-04-24T03:18:54;11.50;;;9.30;;
1376;SDS011;682;52.502;13.488;2023-04-24T03:21:21;10.87;;;8.07;;
1376;SDS011;682;52.502;13.488;2023-04-24T03:23:50;9.90;;;7.70;;
1376;SDS011;682;52.502;13.488;2023-04-24T03:26:17;11.20;;;8.47;;
1376;SDS011;682;52.502;13.488;2023-04-24T03:28:44;10.60;;;7.70;;
1376;SDS011;682;52.502;13.488;2023-04-24T03:31:11;9.67;;;7.13;;
1376;SDS011;682;52.502;13.488;2023-04-24T03:33:40;10.70;;;8.33;;
1376;SDS011;682;52.502;13.488;2023-04-24T03:36:07;9.90;;;7.73;;
1376;SDS011;682;52.502;13.488;2023-04-24T03:38:34;10.70;;;8.17;;
1376;SDS011;682;52.502;13.488;2023-04-24T03:41:02;10.60;;;8.47;;
1376;SDS011;682;52.502;13.488;2023-04-24T03:43:29;10.10;;;7.60;;
1376;SDS011;682;52.502;13.488;2023-04-24T03:45:58;10.37;;;7.23;;
1376;SDS011;682;52.502;13.488;2023-04-24T03:48:25;10.60;;;8.03;;
1376;SDS011;682;52.502;13.488;2023-04-24T03:50:53;9.60;;;7.53;;
1376;SDS011;682;52.502;13.488;2023-04-24T03:53:26;9.87;;;7.50;;
1376;SDS011;682;52.502;13.488;2023-04-24T03:55:55;10.20;;;7.90;;
1376;SDS011;682;52.502;13.488;2023-04-24T03:58:23;11.30;;;7.57;;
1376;SDS011;682;52.502;13.488;2023-04-24T04:00:50;12.30;;;8.47;;
1376;SDS011;682;52.502;13.488;2023-04-24T04:03:17;11.17;;;7.77;;
1376;SDS011;682;52.502;13.488;2023-04-24T04:05:45;11.90;;;8.37;;
1376;SDS011;682;52.502;13.488;2023-04-24T04:08:12;10.20;;;7.63;;
1376;SDS011;682;52.502;13.488;2023-04-24T04:10:39;10.40;;;8.17;;
1376;SDS011;682;52.502;13.488;2023-04-24T04:13:07;11.50;;;8.70;;
1376;SDS011;682;52.502;13.488;2023-04-24T04:15:36;10.87;;;7.60;;
1376;SDS011;682;52.502;13.488;2023-04-24T04:18:03;9.97;;;7.87;;
1376;SDS011;682;52.502;13.488;2023-04-24T04:20:30;9.93;;;7.10;;
1376;SDS011;682;52.502;13.488;2023-04-24T04:22:59;9.20;;;7.00;;
1376;SDS011;682;52.502;13.488;2023-04-24T04:25:32;11.00;;;7.50;;
1376;SDS011;682;52.502;13.488;2023-04-24T04:27:59;9.37;;;7.37;;
1376;SDS011;682;52.502;13.488;2023-04-24T04:30:27;10.67;;;8.57;;
1376;SDS011;682;52.502;13.488;2023-04-24T04:33:00;11.37;;;7.77;;
1376;SDS011;682;52.502;13.488;2023-04-24T04:35:33;10.80;;;7.20;;
1376;SDS011;682;52.502;13.488;2023-04-24T04:38:10;10.20;;;7.50;;
1376;SDS011;682;52.502;13.488;2023-04-24T04:40:41;10.20;;;8.17;;
1376;SDS011;682;52.502;13.488;2023-04-24T04:43:09;11.33;;;7.90;;
1376;SDS011;682;52.502;13.488;2023-04-24T04:45:38;18.47;;;8.90;;
1376;SDS011;682;52.502;13.488;2023-04-24T04:48:08;10.10;;;7.70;;
1376;SDS011;682;52.502;13.488;2023-04-24T04:50:38;9.40;;;6.93;;
1376;SDS011;682;52.502;13.488;2023-04-24T04:53:11;11.90;;;7.23;;
1376;SDS011;682;52.502;13.488;2023-04-24T04:55:41;9.37;;;6.60;;
1376;SDS011;682;52.502;13.488;2023-04-24T04:58:08;10.70;;;7.40;;
1376;SDS011;682;52.502;13.488;2023-04-24T05:00:36;10.30;;;6.93;;
1376;SDS011;682;52.502;13.488;2023-04-24T05:03:04;11.30;;;8.30;;
1376;SDS011;682;52.502;13.488;2023-04-24T05:05:33;9.90;;;7.30;;
1376;SDS011;682;52.502;13.488;2023-04-24T05:08:00;9.63;;;7.43;;
1376;SDS011;682;52.502;13.488;2023-04-24T05:10:27;9.20;;;6.10;;
1376;SDS011;682;52.502;13.488;2023-04-24T05:12:55;8.50;;;6.13;;
1376;SDS011;682;52.502;13.488;2023-04-24T05:15:22;9.20;;;5.90;;
1376;SDS011;682;52.502;13.488;2023-04-24T05:17:49;10.37;;;6.40;;
1376;SDS011;682;52.502;13.488;2023-04-24T05:20:17;9.50;;;6.83;;
1376;SDS011;682;52.502;13.488;2023-04-24T05:22:45;8.00;;;5.83;;
1376;SDS011;682;52.502;13.488;2023-04-24T05:25:12;11.57;;;7.23;;
1376;SDS011;682;52.502;13.488;2023-04-24T05:27:39;9.20;;;5.33;;
1376;SDS011;682;52.502;13.488;2023-04-24T05:30:07;10.10;;;6.30;;
1376;SDS011;682;52.502;13.488;2023-04-24T05:32:35;10.33;;;6.80;;
1376;SDS011;682;52.502;13.488;2023-04-24T05:35:03;12.00;;;7.10;;
1376;SDS011;682;52.502;13.488;2023-04-24T05:37:32;12.87;;;6.70;;
1376;SDS011;682;52.502;13.488;2023-04-24T05:40:01;9.80;;;5.83;;
1376;SDS011;682;52.502;13.488;2023-04-24T05:42:30;10.20;;;7.87;;
1376;SDS011;682;52.502;13.488;2023-04-24T05:44:57;7.90;;;4.43;;
1376;SDS011;682;52.502;13.488;2023-04-24T05:47:25;10.50;;;5.07;;
1376;SDS011;682;52.502;13.488;2023-04-24T05:49:52;9.73;;;4.77;;
1376;SDS011;682;52.502;13.488;2023-04-24T05:52:19;7.43;;;4.60;;
1376;SDS011;682;52.502;13.488;2023-04-24T05:54:46;7.23;;;4.33;;
1376;SDS011;682;52.502;13.488;2023-04-24T05:57:15;11.00;;;5.60;;
1376;SDS011;682;52.502;13.488;2023-04-24T05:59:42;8.33;;;4.40;;
1376;SDS011;682;52.502;13.488;2023-04-24T06:02:09;7.83;;;4.20;;
1376;SDS011;682;52.502;13.488;2023-04-24T06:04:36;9.60;;;4.10;;
1376;SDS011;682;52.502;13.488;2023-04-24T06:07:02;7.60;;;4.60;;
1376;SDS011;682;52.502;13.488;2023-04-24T06:09:29;8.20;;;4.30;;
1376;SDS011;682;52.502;13.488;2023-04-24T06:11:57;8.47;;;4.17;;
1376;SDS011;682;52.502;13.488;2023-04-24T06:14:26;8.70;;;4.33;;
1376;SDS011;682;52.502;13.488;2023-04-24T06:16:55;8.10;;;3.57;;
1376;SDS011;682;52.502;13.488;2023-04-24T06:19:22;6.53;;;3.00;;
1376;SDS011;682;52.502;13.488;2023-04-24T06:21:49;7.13;;;3.70;;
1376;SDS011;682;52.502;13.488;2023-04-24T06:24:16;6.40;;;3.20;;
1376;SDS011;682;52.502;13.488;2023-04-24T06:26:43;8.43;;;3.20;;
1376;SDS011;682;52.502;13.488;2023-04-24T06:29:10;6.60;;;3.07;;
1376;SDS011;682;52.502;13.488;2023-04-24T06:31:38;6.70;;;2.70;;
1376;SDS011;682;52.502;13.488;2023-04-24T06:34:05;5.60;;;2.37;;
1376;SDS011;682;52.502;13.488;2023-04-24T06:36:32;6.80;;;2.60;;
1376;SDS011;682;52.502;13.488;2023-04-24T06:39:03;6.50;;;2.97;;
1376;SDS011;682;52.502;13.488;2023-04-24T06:41:30;5.70;;;2.60;;
1376;SDS011;682;52.502;13.488;2023-04-24T06:43:57;6.83;;;2.80;;
1376;SDS011;682;52.502;13.488;2023-04-24T06:46:24;6.80;;;2.87;;
1376;SDS011;682;52.502;13.488;2023-04-24T06:48:54;8.27;;;2.40;;
1376;SDS011;682;52.502;13.488;2023-04-24T06:51:22;6.17;;;2.50;;
1376;SDS011;682;52.502;13.488;2023-04-24T06:53:53;5.93;;;2.30;;
1376;SDS011;682;52.502;13.488;2023-04-24T06:56:21;7.83;;;2.43;;
1376;SDS011;682;52.502;13.488;2023-04-24T06:58:47;7.30;;;2.90;;
1376;SDS011;682;52.502;13.488;2023-04-24T07:01:14;7.07;;;2.37;;
1376;SDS011;682;52.502;13.488;2023-04-24T07:03:41;6.20;;;2.00;;
1376;SDS011;682;52.502;13.488;2023-04-24T07:06:10;6.50;;;2.70;;
1376;SDS011;682;52.502;13.488;2023-04-24T07:08:37;6.30;;;2.57;;
1376;SDS011;682;52.502;13.488;2023-04-24T07:11:04;11.10;;;6.33;;
1376;SDS011;682;52.502;13.488;2023-04-24T07:13:31;6.20;;;1.93;;
1376;SDS011;682;52.502;13.488;2023-04-24T07:16:00;6.67;;;1.67;;
1376;SDS011;682;52.502;13.488;2023-04-24T07:18:28;6.60;;;1.53;;
1376;SDS011;682;52.502;13.488;2023-04-24T07:20:55;8.47;;;2.10;;
1376;SDS011;682;52.502;13.488;2023-04-24T07:23:24;5.90;;;1.43;;
1376;SDS011;682;52.502;13.488;2023-04-24T07:25:51;5.87;;;1.63;;
1376;SDS011;682;52.502;13.488;2023-04-24T07:28:18;12.70;;;3.13;;
1376;SDS011;682;52.502;13.488;2023-04-24T07:30:45;6.03;;;1.77;;
1376;SDS011;682;52.502;13.488;2023-04-24T07:33:12;5.87;;;1.73;;
1376;SDS011;682;52.502;13.488;2023-04-24T07:35:39;7.80;;;2.03;;
1376;SDS011;682;52.502;13.488;2023-04-24T07:38:06;5.70;;;1.90;;
1376;SDS011;682;52.502;13.488;2023-04-24T07:40:35;5.50;;;1.63;;
1376;SDS011;682;52.502;13.488;2023-04-24T07:43:02;5.50;;;1.50;;
1376;SDS011;682;52.502;13.488;2023-04-24T07:45:29;8.07;;;1.87;;
1376;SDS011;682;52.502;13.488;2023-04-24T07:47:56;6.07;;;1.50;;
1376;SDS011;682;52.502;13.488;2023-04-24T07:50:24;10.20;;;1.40;;
1376;SDS011;682;52.502;13.488;2023-04-24T07:52:51;5.63;;;1.57;;
1376;SDS011;682;52.502;13.488;2023-04-24T07:55:18;5.50;;;1.40;;
1376;SDS011;682;52.502;13.488;2023-04-24T07:57:47;5.10;;;1.10;;
1376;SDS011;682;52.502;13.488;2023-04-24T08:00:14;5.97;;;1.00;;
1376;SDS011;682;52.502;13.488;2023-04-24T08:02:41;5.67;;;1.47;;
1376;SDS011;682;52.502;13.488;2023-04-24T08:05:08;7.43;;;2.10;;
1376;SDS011;682;52.502;13.488;2023-04-24T08:07:36;6.00;;;1.40;;
1376;SDS011;682;52.502;13.488;2023-04-24T08:10:03;5.83;;;1.37;;
1376;SDS011;682;52.502;13.488;2023-04-24T08:12:31;6.07;;;1.10;;
1376;SDS011;682;52.502;13.488;2023-04-24T08:15:00;5.10;;;1.13;;
1376;SDS011;682;52.502;13.488;2023-04-24T08:17:27;5.83;;;1.30;;
1376;SDS011;682;52.502;13.488;2023-04-24T08:19:54;5.00;;;1.17;;
1376;SDS011;682;52.502;13.488;2023-04-24T08:22:26;5.50;;;1.33;;
1376;SDS011;682;52.502;13.488;2023-04-24T08:24:53;5.60;;;1.97;;
1376;SDS011;682;52.502;13.488;2023-04-24T08:27:21;5.80;;;1.53;;
1376;SDS011;682;52.502;13.488;2023-04-24T08:29:49;5.80;;;1.60;;
1376;SDS011;682;52.502;13.488;2023-04-24T08:32:18;7.03;;;2.03;;
1376;SDS011;682;52.502;13.488;2023-04-24T08:34:45;6.73;;;1.40;;
1376;SDS011;682;52.502;13.488;2023-04-24T08:37:15;6.17;;;1.50;;
1376;SDS011;682;52.502;13.488;2023-04-24T08:39:41;6.37;;;1.40;;
1376;SDS011;682;52.502;13.488;2023-04-24T08:42:08;6.80;;;1.60;;
1376;SDS011;682;52.502;13.488;2023-04-24T08:44:37;6.00;;;1.53;;
1376;SDS011;682;52.502;13.488;2023-04-24T08:47:05;5.30;;;1.10;;
1376;SDS011;682;52.502;13.488;2023-04-24T08:49:38;5.60;;;1.33;;
1376;SDS011;682;52.502;13.488;2023-04-24T08:52:06;5.90;;;1.43;;
1376;SDS011;682;52.502;13.488;2023-04-24T08:54:35;6.27;;;1.60;;
1376;SDS011;682;52.502;13.488;2023-04-24T08:57:06;6.60;;;1.10;;
1376;SDS011;682;52.502;13.488;2023-04-24T08:59:36;6.80;;;1.20;;
1376;SDS011;682;52.502;13.488;2023-04-24T09:02:04;4.80;;;1.00;;
1376;SDS011;682;52.502;13.488;2023-04-24T09:04:32;5.97;;;2.00;;
1376;SDS011;682;52.502;13.488;2023-04-24T09:07:02;5.37;;;1.30;;
1376;SDS011;682;52.502;13.488;2023-04-24T09:09:32;5.13;;;1.03;;
1376;SDS011;682;52.502;13.488;2023-04-24T09:12:00;4.80;;;0.90;;
1376;SDS011;682;52.502;13.488;2023-04-24T09:14:29;4.80;;;0.90;;
1376;SDS011;682;52.502;13.488;2023-04-24T09:16:57;9.27;;;3.43;;
1376;SDS011;682;52.502;13.488;2023-04-24T09:19:24;4.63;;;1.13;;
1376;SDS011;682;52.502;13.488;2023-04-24T09:21:50;5.67;;;1.40;;
1376;SDS011;682;52.502;13.488;2023-04-24T09:24:21;5.20;;;1.10;;
1376;SDS011;682;52.502;13.488;2023-04-24T09:26:57;5.10;;;1.73;;
1376;SDS011;682;52.502;13.488;2023-04-24T09:29:26;5.50;;;1.50;;
1376;SDS011;682;52.502;13.488;2023-04-24T09:31:53;6.83;;;1.70;;
1376;SDS011;682;52.502;13.488;2023-04-24T09:34:21;5.90;;;1.10;;
1376;SDS011;682;52.502;13.488;2023-04-24T09:36:50;6.17;;;1.17;;
1376;SDS011;682;52.502;13.488;2023-04-24T09:39:17;7.00;;;1.80;;
1376;SDS011;682;52.502;13.488;2023-04-24T09:41:48;6.00;;;1.30;;
1376;SDS011;682;52.502;13.488;2023-04-24T09:44:16;5.30;;;1.40;;
1376;SDS011;682;52.502;13.488;2023-04-24T09:46:49;5.23;;;1.17;;
1376;SDS011;682;52.502;13.488;2023-04-24T09:49:21;5.47;;;1.20;;
1376;SDS011;682;52.502;13.488;2023-04-24T09:51:50;7.77;;;1.53;;
1376;SDS011;682;52.502;13.488;2023-04-24T09:54:18;7.20;;;1.40;;
1376;SDS011;682;52.502;13.488;2023-04-24T09:56:49;6.27;;;1.50;;
1376;SDS011;682;52.502;13.488;2023-04-24T09:59:18;4.90;;;1.17;;
1376;SDS011;682;52.502;13.488;2023-04-24T10:01:45;5.33;;;1.40;;
1376;SDS011;682;52.502;13.488;2023-04-24T10:04:17;7.10;;;1.60;;
1376;SDS011;682;52.502;13.488;2023-04-24T10:06:46;5.27;;;1.47;;
1376;SDS011;682;52.502;13.488;2023-04-24T10:09:13;5.50;;;1.30;;
1376;SDS011;682;52.502;13.488;2023-04-24T10:11:42;7.80;;;1.60;;
1376;SDS011;682;52.502;13.488;2023-04-24T10:14:13;4.97;;;1.10;;
1376;SDS011;682;52.502;13.488;2023-04-24T10:16:41;6.67;;;1.33;;
1376;SDS011;682;52.502;13.488;2023-04-24T10:19:12;5.33;;;1.27;;
1376;SDS011;682;52.502;13.488;2023-04-24T10:21:40;5.43;;;1.37;;
1376;SDS011;682;52.502;13.488;2023-04-24T10:24:11;4.87;;;1.17;;
1376;SDS011;682;52.502;13.488;2023-04-24T10:26:40;5.37;;;1.53;;
1376;SDS011;682;52.502;13.488;2023-04-24T10:29:07;5.37;;;1.33;;
1376;SDS011;682;52.502;13.488;2023-04-24T10:31:39;5.40;;;1.10;;
1376;SDS011;682;52.502;13.488;2023-04-24T10:34:06;4.80;;;1.10;;
1376;SDS011;682;52.502;13.488;2023-04-24T10:36:35;6.60;;;1.40;;
1376;SDS011;682;52.502;13.488;2023-04-24T10:39:06;4.90;;;0.80;;
1376;SDS011;682;52.502;13.488;2023-04-24T10:41:36;5.10;;;1.23;;
1376;SDS011;682;52.502;13.488;2023-04-24T10:44:04;5.47;;;0.90;;
1376;SDS011;682;52.502;13.488;2023-04-24T10:46:32;5.67;;;0.87;;
1376;SDS011;682;52.502;13.488;2023-04-24T10:49:01;12.00;;;1.40;;
1376;SDS011;682;52.502;13.488;2023-04-24T10:51:46;5.30;;;1.20;;
1376;SDS011;682;52.502;13.488;2023-04-24T10:54:24;5.43;;;1.23;;
1376;SDS011;682;52.502;13.488;2023-04-24T10:56:52;5.37;;;1.20;;
1376;SDS011;682;52.502;13.488;2023-04-24T10:59:40;5.00;;;1.00;;
1376;SDS011;682;52.502;13.488;2023-04-24T11:02:07;5.63;;;1.23;;
1376;SDS011;682;52.502;13.488;2023-04-24T11:04:37;5.43;;;1.40;;
1376;SDS011;682;52.502;13.488;2023-04-24T11:07:04;7.27;;;1.60;;
1376;SDS011;682;52.502;13.488;2023-04-24T11:09:31;7.20;;;1.33;;
1376;SDS011;682;52.502;13.488;2023-04-24T11:12:04;8.10;;;2.93;;
1376;SDS011;682;52.502;13.488;2023-04-24T11:17:28;5.43;;;1.67;;
1376;SDS011;682;52.502;13.488;2023-04-24T11:20:01;5.53;;;1.23;;
1376;SDS011;682;52.502;13.488;2023-04-24T11:22:30;6.23;;;1.37;;
1376;SDS011;682;52.502;13.488;2023-04-24T11:25:00;7.30;;;1.50;;
1376;SDS011;682;52.502;13.488;2023-04-24T11:27:30;5.53;;;1.30;;
1376;SDS011;682;52.502;13.488;2023-04-24T11:29:59;6.50;;;1.80;;
1376;SDS011;682;52.502;13.488;2023-04-24T11:32:28;5.67;;;1.60;;
1376;SDS011;682;52.502;13.488;2023-04-24T11:34:56;5.00;;;1.40;;
1376;SDS011;682;52.502;13.488;2023-04-24T11:37:27;5.90;;;1.90;;
1376;SDS011;682;52.502;13.488;2023-04-24T11:39:56;8.13;;;2.20;;
1376;SDS011;682;52.502;13.488;2023-04-24T11:42:24;8.60;;;2.37;;
1376;SDS011;682;52.502;13.488;2023-04-24T11:44:53;8.80;;;2.37;;
1376;SDS011;682;52.502;13.488;2023-04-24T11:47:27;6.97;;;1.73;;
1376;SDS011;682;52.502;13.488;2023-04-24T11:49:59;8.17;;;1.90;;
1376;SDS011;682;52.502;13.488;2023-04-24T11:52:28;9.90;;;2.33;;
1376;SDS011;682;52.502;13.488;2023-04-24T11:54:56;7.50;;;3.17;;
1376;SDS011;682;52.502;13.488;2023-04-24T11:57:24;7.37;;;3.03;;
1376;SDS011;682;52.502;13.488;2023-04-24T11:59:53;10.23;;;3.27;;
1376;SDS011;682;52.502;13.488;2023-04-24T12:02:24;9.07;;;2.50;;
1376;SDS011;682;52.502;13.488;2023-04-24T12:04:52;5.50;;;1.57;;
1376;SDS011;682;52.502;13.488;2023-04-24T12:07:19;6.90;;;1.70;;
1376;SDS011;682;52.502;13.488;2023-04-24T12:09:48;7.90;;;1.90;;
1376;SDS011;682;52.502;13.488;2023-04-24T12:12:24;5.70;;;1.20;;
1376;SDS011;682;52.502;13.488;2023-04-24T12:14:52;5.70;;;1.60;;
1376;SDS011;682;52.502;13.488;2023-04-24T12:17:23;5.80;;;1.10;;
1376;SDS011;682;52.502;13.488;2023-04-24T12:19:51;8.30;;;3.83;;
1376;SDS011;682;52.502;13.488;2023-04-24T12:22:18;4.00;;;0.90;;
1376;SDS011;682;52.502;13.488;2023-04-24T12:25:02;4.03;;;1.20;;
1376;SDS011;682;52.502;13.488;2023-04-24T12:27:31;4.90;;;1.40;;
1376;SDS011;682;52.502;13.488;2023-04-24T12:29:59;4.50;;;1.20;;
1376;SDS011;682;52.502;13.488;2023-04-24T12:32:27;4.37;;;1.00;;
1376;SDS011;682;52.502;13.488;2023-04-24T12:34:54;6.10;;;1.80;;
1376;SDS011;682;52.502;13.488;2023-04-24T12:37:22;3.77;;;0.90;;
1376;SDS011;682;52.502;13.488;2023-04-24T12:39:58;5.40;;;1.57;;
1376;SDS011;682;52.502;13.488;2023-04-24T12:42:27;5.10;;;1.20;;
1376;SDS011;682;52.502;13.488;2023-04-24T12:44:58;5.57;;;1.73;;
1376;SDS011;682;52.502;13.488;2023-04-24T12:47:27;4.97;;;1.07;;
1376;SDS011;682;52.502;13.488;2023-04-24T12:49:55;5.33;;;1.47;;
1376;SDS011;682;52.502;13.488;2023-04-24T12:52:22;5.10;;;1.33;;
1376;SDS011;682;52.502;13.488;2023-04-24T12:54:52;5.37;;;1.50;;
1376;SDS011;682;52.502;13.488;2023-04-24T12:57:19;4.47;;;1.33;;
1376;SDS011;682;52.502;13.488;2023-04-24T12:59:48;4.80;;;1.20;;
1376;SDS011;682;52.502;13.488;2023-04-24T13:02:15;4.20;;;1.10;;
1376;SDS011;682;52.502;13.488;2023-04-24T13:04:43;4.50;;;1.40;;
1376;SDS011;682;52.502;13.488;2023-04-24T13:07:11;6.00;;;1.30;;
1376;SDS011;682;52.502;13.488;2023-04-24T13:09:39;4.63;;;1.10;;
1376;SDS011;682;52.502;13.488;2023-04-24T13:12:06;5.17;;;1.20;;
1376;SDS011;682;52.502;13.488;2023-04-24T13:14:33;4.20;;;1.13;;
1376;SDS011;682;52.502;13.488;2023-04-24T13:17:01;5.40;;;3.40;;
1376;SDS011;682;52.502;13.488;2023-04-24T13:19:29;3.87;;;0.90;;
1376;SDS011;682;52.502;13.488;2023-04-24T13:21:56;4.40;;;1.10;;
1376;SDS011;682;52.502;13.488;2023-04-24T13:24:24;4.90;;;1.00;;
1376;SDS011;682;52.502;13.488;2023-04-24T13:26:51;5.00;;;1.10;;
1376;SDS011;682;52.502;13.488;2023-04-24T13:29:19;3.80;;;0.93;;
1376;SDS011;682;52.502;13.488;2023-04-24T13:31:46;3.33;;;0.90;;
1376;SDS011;682;52.502;13.488;2023-04-24T13:34:15;4.00;;;1.17;;
1376;SDS011;682;52.502;13.488;2023-04-24T13:36:43;3.40;;;1.10;;
1376;SDS011;682;52.502;13.488;2023-04-24T13:39:09;3.90;;;1.00;;
1376;SDS011;682;52.502;13.488;2023-04-24T13:41:36;4.03;;;1.23;;
1376;SDS011;682;52.502;13.488;2023-04-24T13:44:04;3.30;;;0.87;;
1376;SDS011;682;52.502;13.488;2023-04-24T13:46:31;5.23;;;1.10;;
1376;SDS011;682;52.502;13.488;2023-04-24T13:48:58;4.10;;;1.00;;
1376;SDS011;682;52.502;13.488;2023-04-24T13:51:31;3.70;;;1.23;;
1376;SDS011;682;52.502;13.488;2023-04-24T13:53:58;3.97;;;1.33;;
1376;SDS011;682;52.502;13.488;2023-04-24T13:56:25;5.27;;;1.97;;
1376;SDS011;682;52.502;13.488;2023-04-24T13:58:52;3.07;;;0.87;;
1376;SDS011;682;52.502;13.488;2023-04-24T14:01:20;3.00;;;1.20;;
1376;SDS011;682;52.502;13.488;2023-04-24T14:03:49;3.70;;;1.00;;
1376;SDS011;682;52.502;13.488;2023-04-24T14:06:17;3.70;;;1.30;;
1376;SDS011;682;52.502;13.488;2023-04-24T14:08:46;4.70;;;1.60;;
1376;SDS011;682;52.502;13.488;2023-04-24T14:11:13;4.00;;;1.27;;
1376;SDS011;682;52.502;13.488;2023-04-24T14:13:40;3.47;;;1.00;;
1376;SDS011;682;52.502;13.488;2023-04-24T14:16:08;4.60;;;1.23;;
1376;SDS011;682;52.502;13.488;2023-04-24T14:18:36;3.83;;;1.00;;
1376;SDS011;682;52.502;13.488;2023-04-24T14:21:03;3.87;;;1.30;;
1376;SDS011;682;52.502;13.488;2023-04-24T14:23:31;4.80;;;1.50;;
1376;SDS011;682;52.502;13.488;2023-04-24T14:25:59;3.40;;;1.10;;
1376;SDS011;682;52.502;13.488;2023-04-24T14:28:26;3.30;;;1.20;;
1376;SDS011;682;52.502;13.488;2023-04-24T14:30:53;3.87;;;1.30;;
1376;SDS011;682;52.502;13.488;2023-04-24T14:33:20;4.23;;;1.10;;
1376;SDS011;682;52.502;13.488;2023-04-24T14:35:47;5.37;;;1.43;;
1376;SDS011;682;52.502;13.488;2023-04-24T14:38:14;6.83;;;1.80;;
1376;SDS011;682;52.502;13.488;2023-04-24T14:40:41;3.37;;;1.03;;
1376;SDS011;682;52.502;13.488;2023-04-24T14:43:09;4.23;;;1.37;;
1376;SDS011;682;52.502;13.488;2023-04-24T14:45:36;3.70;;;1.00;;
1376;SDS011;682;52.502;13.488;2023-04-24T14:48:05;5.30;;;1.20;;
1376;SDS011;682;52.502;13.488;2023-04-24T14:50:33;4.33;;;1.27;;
1376;SDS011;682;52.502;13.488;2023-04-24T14:53:01;6.60;;;2.77;;
1376;SDS011;682;52.502;13.488;2023-04-24T14:55:29;4.97;;;1.00;;
1376;SDS011;682;52.502;13.488;2023-04-24T14:57:57;3.70;;;1.07;;
1376;SDS011;682;52.502;13.488;2023-04-24T15:00:25;4.07;;;1.30;;
1376;SDS011;682;52.502;13.488;2023-04-24T15:02:52;3.83;;;1.43;;
1376;SDS011;682;52.502;13.488;2023-04-24T15:05:21;4.43;;;1.40;;
1376;SDS011;682;52.502;13.488;2023-04-24T15:07:48;4.10;;;1.30;;
1376;SDS011;682;52.502;13.488;2023-04-24T15:10:15;4.07;;;1.33;;
1376;SDS011;682;52.502;13.488;2023-04-24T15:12:42;3.90;;;1.40;;
1376;SDS011;682;52.502;13.488;2023-04-24T15:15:09;4.77;;;1.80;;
1376;SDS011;682;52.502;13.488;2023-04-24T15:17:38;4.93;;;1.90;;
1376;SDS011;682;52.502;13.488;2023-04-24T15:20:05;4.50;;;1.40;;
1376;SDS011;682;52.502;13.488;2023-04-24T15:22:35;5.00;;;1.70;;